Time,TemperatureF,DewpointF,PressureIn,WindDirection,WindDirectionDegrees,WindSpeedMPH,WindSpeedGustMPH,Humidity,HourlyPrecipIn,Conditions,Clouds,dailyrainin,SoftwareType,DateUTC
2013-07-20 00:00:00,69.4,67.9,29.92,North,0,0.0,0.0,95,0.37,,,0.00,VWS V14.01,2013-07-20 04:00:00,
2013-07-20 00:05:00,69.3,67.8,29.92,North,0,0.0,0.0,95,0.37,,,0.00,VWS V14.01,2013-07-20 04:05:00,
2013-07-20 00:10:00,69.1,67.6,29.92,North,0,0.0,0.0,95,0.26,,,0.00,VWS V14.01,2013-07-20 04:10:00,
2013-07-20 00:15:00,69.1,67.6,29.90,North,0,0.0,0.0,95,0.21,,,0.00,VWS V14.01,2013-07-20 04:15:00,
2013-07-20 00:20:00,69.1,67.6,29.90,North,0,0.0,0.0,95,0.18,,,0.00,VWS V14.01,2013-07-20 04:20:00,
2013-07-20 00:25:00,69.1,67.9,29.90,North,0,0.0,0.0,96,0.08,,,0.00,VWS V14.01,2013-07-20 04:25:00,
2013-07-20 00:30:00,68.9,67.7,29.90,North,0,0.0,0.0,96,0.02,,,0.00,VWS V14.01,2013-07-20 04:30:00,
2013-07-20 00:35:00,69.1,67.9,29.90,North,0,0.0,0.0,96,0.00,,,0.00,VWS V14.01,2013-07-20 04:35:00,
2013-07-20 00:40:00,68.9,67.7,29.90,North,0,0.0,0.0,96,0.00,,,0.00,VWS V14.01,2013-07-20 04:40:00,
2013-07-20 00:45:00,68.9,67.7,29.89,North,0,0.0,0.0,96,0.00,,,0.00,VWS V14.01,2013-07-20 04:45:00,
2013-07-20 00:50:00,68.9,67.7,29.89,North,0,0.0,0.0,96,0.00,,,0.00,VWS V14.01,2013-07-20 04:50:00,
2013-07-20 00:55:00,68.9,67.7,29.89,North,0,0.0,0.0,96,0.00,,,0.00,VWS V14.01,2013-07-20 04:55:00,
2013-07-20 01:00:00,68.9,67.7,29.88,North,0,0.0,0.0,96,0.00,,,0.00,VWS V14.01,2013-07-20 05:00:00,
2013-07-20 01:05:00,68.8,67.6,29.88,North,0,0.0,0.0,96,0.00,,,0.00,VWS V14.01,2013-07-20 05:05:00,
2013-07-20 01:10:00,68.6,67.4,29.88,North,0,0.0,0.0,96,0.00,,,0.00,VWS V14.01,2013-07-20 05:10:00,
2013-07-20 01:15:00,68.6,67.4,29.88,North,0,0.0,0.0,96,0.00,,,0.00,VWS V14.01,2013-07-20 05:15:00,
2013-07-20 01:20:00,68.6,67.4,29.88,North,0,0.0,0.0,96,0.00,,,0.00,VWS V14.01,2013-07-20 05:20:00,
2013-07-20 01:25:00,68.4,67.2,29.88,North,0,0.0,0.0,96,0.00,,,0.00,VWS V14.01,2013-07-20 05:25:00,
2013-07-20 01:30:00,68.3,67.1,29.89,North,0,0.0,0.0,96,0.00,,,0.00,VWS V14.01,2013-07-20 05:30:00,
2013-07-20 01:35:00,68.3,67.1,29.89,North,0,0.0,0.0,96,0.00,,,0.00,VWS V14.01,2013-07-20 05:35:00,
2013-07-20 01:40:00,68.1,66.9,29.89,North,0,0.0,0.0,96,0.00,,,0.00,VWS V14.01,2013-07-20 05:40:00,
2013-07-20 01:45:00,68.1,66.9,29.89,North,0,0.0,0.0,96,0.00,,,0.00,VWS V14.01,2013-07-20 05:45:00,
2013-07-20 01:50:00,67.8,66.6,29.89,North,0,0.0,0.0,96,0.00,,,0.00,VWS V14.01,2013-07-20 05:50:00,
2013-07-20 01:55:00,67.6,66.4,29.89,North,0,0.0,0.0,96,0.00,,,0.00,VWS V14.01,2013-07-20 05:55:00,
2013-07-20 02:00:00,67.6,66.4,29.90,North,0,0.0,0.0,96,0.00,,,0.00,VWS V14.01,2013-07-20 06:00:00,
2013-07-20 02:05:00,67.4,66.2,29.90,North,0,0.0,0.0,96,0.00,,,0.00,VWS V14.01,2013-07-20 06:05:00,
2013-07-20 02:10:00,67.4,66.5,29.90,North,0,0.0,0.0,97,0.00,,,0.00,VWS V14.01,2013-07-20 06:10:00,
2013-07-20 02:15:00,67.3,66.1,29.89,North,0,0.0,0.0,96,0.00,,,0.00,VWS V14.01,2013-07-20 06:15:00,
2013-07-20 02:20:00,67.1,66.2,29.89,North,0,0.0,0.0,97,0.00,,,0.00,VWS V14.01,2013-07-20 06:20:00,
2013-07-20 02:25:00,67.1,66.2,29.89,North,0,0.0,0.0,97,0.00,,,0.00,VWS V14.01,2013-07-20 06:25:00,
2013-07-20 02:30:00,66.9,66.0,29.89,North,0,0.0,0.0,97,0.00,,,0.00,VWS V14.01,2013-07-20 06:30:00,
2013-07-20 02:35:00,66.9,66.0,29.89,North,0,0.0,0.0,97,0.01,,,0.01,VWS V14.01,2013-07-20 06:35:00,
2013-07-20 02:40:00,66.8,65.9,29.89,North,0,0.0,0.0,97,0.01,,,0.01,VWS V14.01,2013-07-20 06:40:00,
2013-07-20 02:45:00,66.8,65.9,29.89,North,0,0.0,0.0,97,0.01,,,0.01,VWS V14.01,2013-07-20 06:45:00,
2013-07-20 02:50:00,66.8,65.9,29.89,North,0,0.0,0.0,97,0.01,,,0.01,VWS V14.01,2013-07-20 06:50:00,
2013-07-20 02:55:00,66.8,65.9,29.89,North,0,0.0,0.0,97,0.01,,,0.01,VWS V14.01,2013-07-20 06:55:00,
2013-07-20 03:00:00,66.6,65.7,29.89,North,0,0.0,0.0,97,0.01,,,0.01,VWS V14.01,2013-07-20 07:00:00,
2013-07-20 03:05:00,66.6,65.7,29.89,North,0,0.0,0.0,97,0.01,,,0.01,VWS V14.01,2013-07-20 07:05:00,
2013-07-20 03:10:00,66.6,65.7,29.89,North,0,0.0,0.0,97,0.01,,,0.01,VWS V14.01,2013-07-20 07:10:00,
2013-07-20 03:15:00,66.6,65.7,29.90,North,0,0.0,0.0,97,0.01,,,0.01,VWS V14.01,2013-07-20 07:15:00,
2013-07-20 03:20:00,66.6,65.7,29.90,North,0,0.0,0.0,97,0.01,,,0.01,VWS V14.01,2013-07-20 07:20:00,
2013-07-20 03:25:00,66.4,65.5,29.90,North,0,0.0,0.0,97,0.01,,,0.01,VWS V14.01,2013-07-20 07:25:00,
2013-07-20 03:30:00,66.4,65.5,29.89,North,0,0.0,0.0,97,0.01,,,0.01,VWS V14.01,2013-07-20 07:30:00,
2013-07-20 03:35:00,66.4,65.5,29.89,North,0,0.0,0.0,97,0.01,,,0.01,VWS V14.01,2013-07-20 07:35:00,
2013-07-20 03:40:00,66.3,65.4,29.89,North,0,0.0,0.0,97,0.00,,,0.01,VWS V14.01,2013-07-20 07:40:00,
2013-07-20 03:45:00,66.4,65.5,29.88,North,0,0.0,0.0,97,0.00,,,0.01,VWS V14.01,2013-07-20 07:45:00,
2013-07-20 03:50:00,66.4,65.5,29.88,North,0,0.0,1.0,97,0.00,,,0.01,VWS V14.01,2013-07-20 07:50:00,
2013-07-20 03:55:00,66.4,65.5,29.88,North,0,0.0,0.0,97,0.00,,,0.01,VWS V14.01,2013-07-20 07:55:00,
2013-07-20 04:00:00,66.3,65.4,29.88,North,0,0.0,0.0,97,0.00,,,0.01,VWS V14.01,2013-07-20 08:00:00,
2013-07-20 04:05:00,66.3,65.4,29.88,North,0,0.0,0.0,97,0.00,,,0.01,VWS V14.01,2013-07-20 08:05:00,
2013-07-20 04:10:00,66.3,65.4,29.88,North,0,0.0,0.0,97,0.00,,,0.01,VWS V14.01,2013-07-20 08:10:00,
2013-07-20 04:15:00,66.1,65.2,29.88,North,0,0.0,0.0,97,0.00,,,0.01,VWS V14.01,2013-07-20 08:15:00,
2013-07-20 04:20:00,66.1,65.2,29.88,North,0,0.0,0.0,97,0.00,,,0.01,VWS V14.01,2013-07-20 08:20:00,
2013-07-20 04:25:00,66.3,65.4,29.88,North,0,0.0,0.0,97,0.00,,,0.01,VWS V14.01,2013-07-20 08:25:00,
2013-07-20 04:30:00,66.3,65.4,29.87,North,0,0.0,0.0,97,0.00,,,0.01,VWS V14.01,2013-07-20 08:30:00,
2013-07-20 04:35:00,66.3,65.4,29.87,North,0,0.0,0.0,97,0.00,,,0.01,VWS V14.01,2013-07-20 08:35:00,
2013-07-20 04:40:00,66.4,65.5,29.87,North,0,0.0,0.0,97,0.00,,,0.01,VWS V14.01,2013-07-20 08:40:00,
2013-07-20 04:45:00,66.4,65.5,29.87,North,0,0.0,0.0,97,0.00,,,0.01,VWS V14.01,2013-07-20 08:45:00,
2013-07-20 04:50:00,66.6,65.7,29.87,North,0,0.0,0.0,97,0.00,,,0.01,VWS V14.01,2013-07-20 08:50:00,
2013-07-20 04:55:00,66.6,66.0,29.87,North,0,0.0,0.0,98,0.00,,,0.01,VWS V14.01,2013-07-20 08:55:00,
2013-07-20 05:00:00,66.6,66.0,29.86,North,0,0.0,0.0,98,0.00,,,0.01,VWS V14.01,2013-07-20 09:00:00,
2013-07-20 05:05:00,66.6,66.0,29.86,North,0,0.0,0.0,98,0.00,,,0.01,VWS V14.01,2013-07-20 09:05:00,
2013-07-20 05:10:00,66.6,66.0,29.86,North,0,0.0,1.0,98,0.00,,,0.01,VWS V14.01,2013-07-20 09:10:00,
2013-07-20 05:15:00,66.6,66.0,29.87,North,0,0.0,0.0,98,0.00,,,0.01,VWS V14.01,2013-07-20 09:15:00,
2013-07-20 05:20:00,66.8,66.2,29.87,North,0,0.0,0.0,98,0.00,,,0.01,VWS V14.01,2013-07-20 09:20:00,
2013-07-20 05:25:00,66.6,66.0,29.87,North,0,0.0,0.0,98,0.00,,,0.01,VWS V14.01,2013-07-20 09:25:00,
2013-07-20 05:30:00,66.6,66.0,29.87,North,0,0.0,0.0,98,0.00,,,0.01,VWS V14.01,2013-07-20 09:30:00,
2013-07-20 05:35:00,66.6,66.0,29.87,North,0,0.0,0.0,98,0.00,,,0.01,VWS V14.01,2013-07-20 09:35:00,
2013-07-20 05:40:00,66.8,66.2,29.87,North,0,0.0,0.0,98,0.00,,,0.01,VWS V14.01,2013-07-20 09:40:00,
2013-07-20 05:45:00,66.6,66.0,29.87,North,0,0.0,0.0,98,0.00,,,0.01,VWS V14.01,2013-07-20 09:45:00,
2013-07-20 05:50:00,66.6,66.0,29.87,North,0,0.0,0.0,98,0.00,,,0.01,VWS V14.01,2013-07-20 09:50:00,
2013-07-20 05:55:00,66.4,65.8,29.87,North,0,0.0,0.0,98,0.00,,,0.01,VWS V14.01,2013-07-20 09:55:00,
2013-07-20 06:00:00,66.4,65.8,29.88,North,0,0.0,0.0,98,0.00,,,0.01,VWS V14.01,2013-07-20 10:00:00,
2013-07-20 06:05:00,66.4,65.8,29.88,North,0,0.0,0.0,98,0.00,,,0.01,VWS V14.01,2013-07-20 10:05:00,
2013-07-20 06:10:00,66.4,65.8,29.88,North,0,0.0,0.0,98,0.00,,,0.01,VWS V14.01,2013-07-20 10:10:00,
2013-07-20 06:15:00,66.6,66.0,29.89,North,0,0.0,0.0,98,0.00,,,0.01,VWS V14.01,2013-07-20 10:15:00,
2013-07-20 06:20:00,66.6,66.0,29.89,North,0,0.0,0.0,98,0.00,,,0.01,VWS V14.01,2013-07-20 10:20:00,
2013-07-20 06:25:00,66.8,66.2,29.89,North,0,0.0,0.0,98,0.00,,,0.01,VWS V14.01,2013-07-20 10:25:00,
2013-07-20 06:30:00,66.8,66.2,29.90,North,0,0.0,0.0,98,0.00,,,0.01,VWS V14.01,2013-07-20 10:30:00,
2013-07-20 06:35:00,66.8,66.2,29.90,North,0,0.0,0.0,98,0.00,,,0.01,VWS V14.01,2013-07-20 10:35:00,
2013-07-20 06:40:00,66.9,66.3,29.90,North,0,0.0,0.0,98,0.00,,,0.01,VWS V14.01,2013-07-20 10:40:00,
2013-07-20 06:45:00,66.9,66.3,29.90,North,0,0.0,0.0,98,0.00,,,0.01,VWS V14.01,2013-07-20 10:45:00,
2013-07-20 06:50:00,66.8,66.2,29.90,North,0,0.0,0.0,98,0.00,,,0.01,VWS V14.01,2013-07-20 10:50:00,
2013-07-20 06:55:00,66.9,66.3,29.90,North,0,0.0,0.0,98,0.00,,,0.01,VWS V14.01,2013-07-20 10:55:00,
2013-07-20 07:00:00,66.9,66.3,29.90,North,0,0.0,0.0,98,0.00,,,0.01,VWS V14.01,2013-07-20 11:00:00,
2013-07-20 07:05:00,66.9,66.3,29.90,North,0,0.0,0.0,98,0.00,,,0.01,VWS V14.01,2013-07-20 11:05:00,
2013-07-20 07:10:00,66.9,66.3,29.90,North,0,0.0,0.0,98,0.00,,,0.01,VWS V14.01,2013-07-20 11:10:00,
2013-07-20 07:15:00,66.9,66.3,29.91,North,0,0.0,0.0,98,0.00,,,0.01,VWS V14.01,2013-07-20 11:15:00,
2013-07-20 07:20:00,66.9,66.3,29.91,North,0,0.0,0.0,98,0.00,,,0.01,VWS V14.01,2013-07-20 11:20:00,
2013-07-20 07:25:00,67.1,66.5,29.91,North,0,0.0,0.0,98,0.00,,,0.01,VWS V14.01,2013-07-20 11:25:00,
2013-07-20 07:30:00,67.1,66.5,29.91,North,0,0.0,0.0,98,0.00,,,0.01,VWS V14.01,2013-07-20 11:30:00,
2013-07-20 07:35:00,67.1,66.5,29.91,North,0,0.0,0.0,98,0.00,,,0.01,VWS V14.01,2013-07-20 11:35:00,
2013-07-20 07:40:00,67.3,66.7,29.91,North,0,0.0,0.0,98,0.00,,,0.01,VWS V14.01,2013-07-20 11:40:00,
2013-07-20 07:45:00,67.3,66.7,29.92,North,0,0.0,0.0,98,0.00,,,0.01,VWS V14.01,2013-07-20 11:45:00,
2013-07-20 07:50:00,67.4,66.8,29.92,North,0,0.0,0.0,98,0.00,,,0.01,VWS V14.01,2013-07-20 11:50:00,
2013-07-20 07:55:00,67.8,67.2,29.92,North,0,0.0,0.0,98,0.00,,,0.01,VWS V14.01,2013-07-20 11:55:00,
2013-07-20 08:00:00,67.8,67.2,29.91,North,0,0.0,0.0,98,0.00,,,0.01,VWS V14.01,2013-07-20 12:00:00,
2013-07-20 08:05:00,67.9,67.3,29.91,North,0,0.0,0.0,98,0.00,,,0.01,VWS V14.01,2013-07-20 12:05:00,
2013-07-20 08:10:00,68.1,67.5,29.91,North,0,0.0,0.0,98,0.00,,,0.01,VWS V14.01,2013-07-20 12:10:00,
2013-07-20 08:15:00,68.3,67.7,29.92,North,0,0.0,0.0,98,0.00,,,0.01,VWS V14.01,2013-07-20 12:15:00,
2013-07-20 08:20:00,68.4,67.8,29.92,North,0,0.0,0.0,98,0.00,,,0.01,VWS V14.01,2013-07-20 12:20:00,
2013-07-20 08:25:00,68.6,68.0,29.92,North,0,0.0,0.0,98,0.00,,,0.01,VWS V14.01,2013-07-20 12:25:00,
2013-07-20 08:30:00,68.6,68.0,29.92,North,0,0.0,1.0,98,0.00,,,0.01,VWS V14.01,2013-07-20 12:30:00,
2013-07-20 08:35:00,68.8,68.2,29.92,North,0,0.0,0.0,98,0.00,,,0.01,VWS V14.01,2013-07-20 12:35:00,
2013-07-20 08:40:00,68.9,68.3,29.92,North,0,0.0,0.0,98,0.00,,,0.01,VWS V14.01,2013-07-20 12:40:00,
2013-07-20 08:45:00,69.1,68.5,29.93,North,0,0.0,0.0,98,0.00,,,0.01,VWS V14.01,2013-07-20 12:45:00,
2013-07-20 08:50:00,69.3,68.7,29.93,North,0,0.0,2.0,98,0.00,,,0.01,VWS V14.01,2013-07-20 12:50:00,
2013-07-20 08:55:00,69.4,68.8,29.93,North,0,0.0,1.0,98,0.00,,,0.01,VWS V14.01,2013-07-20 12:55:00,
2013-07-20 09:00:00,69.4,68.8,29.93,North,0,1.0,2.0,98,0.00,,,0.01,VWS V14.01,2013-07-20 13:00:00,
2013-07-20 09:05:00,69.4,68.8,29.93,North,0,0.0,0.0,98,0.00,,,0.01,VWS V14.01,2013-07-20 13:05:00,
2013-07-20 09:10:00,69.6,69.0,29.93,North,0,0.0,0.0,98,0.00,,,0.01,VWS V14.01,2013-07-20 13:10:00,
2013-07-20 09:15:00,69.6,69.0,29.93,West,270,0.0,2.0,98,0.00,,,0.01,VWS V14.01,2013-07-20 13:15:00,
2013-07-20 09:20:00,69.8,69.2,29.93,West,270,0.0,1.0,98,0.00,,,0.01,VWS V14.01,2013-07-20 13:20:00,
2013-07-20 09:25:00,69.9,69.3,29.93,West,270,0.0,0.0,98,0.00,,,0.01,VWS V14.01,2013-07-20 13:25:00,
2013-07-20 09:30:00,70.3,69.7,29.94,West,270,0.0,0.0,98,0.00,,,0.01,VWS V14.01,2013-07-20 13:30:00,
2013-07-20 09:35:00,70.4,69.8,29.94,West,270,0.0,0.0,98,0.00,,,0.01,VWS V14.01,2013-07-20 13:35:00,
2013-07-20 09:40:00,70.8,70.2,29.94,West,270,0.0,2.0,98,0.00,,,0.01,VWS V14.01,2013-07-20 13:40:00,
2013-07-20 09:45:00,70.8,70.2,29.93,West,270,0.0,1.0,98,0.00,,,0.01,VWS V14.01,2013-07-20 13:45:00,
2013-07-20 09:50:00,71.1,70.5,29.93,West,270,0.0,0.0,98,0.00,,,0.01,VWS V14.01,2013-07-20 13:50:00,
2013-07-20 09:55:00,71.1,70.5,29.93,West,270,1.0,4.0,98,0.00,,,0.01,VWS V14.01,2013-07-20 13:55:00,
2013-07-20 10:00:00,71.5,70.9,29.93,West,270,0.0,3.0,98,0.00,,,0.01,VWS V14.01,2013-07-20 14:00:00,
2013-07-20 10:05:00,71.6,71.0,29.93,West,270,1.0,3.0,98,0.00,,,0.01,VWS V14.01,2013-07-20 14:05:00,
2013-07-20 10:10:00,71.5,70.9,29.93,WSW,248,1.0,5.0,98,0.00,,,0.01,VWS V14.01,2013-07-20 14:10:00,
2013-07-20 10:15:00,71.5,70.9,29.93,West,270,1.0,3.0,98,0.00,,,0.01,VWS V14.01,2013-07-20 14:15:00,
2013-07-20 10:20:00,71.6,71.0,29.93,WSW,248,1.0,7.0,98,0.00,,,0.01,VWS V14.01,2013-07-20 14:20:00,
2013-07-20 10:25:00,71.8,71.2,29.93,West,270,0.0,3.0,98,0.00,,,0.01,VWS V14.01,2013-07-20 14:25:00,
2013-07-20 10:30:00,72.1,71.5,29.92,West,270,1.0,3.0,98,0.00,,,0.01,VWS V14.01,2013-07-20 14:30:00,
2013-07-20 10:35:00,72.5,71.9,29.92,West,270,1.0,3.0,98,0.00,,,0.01,VWS V14.01,2013-07-20 14:35:00,
2013-07-20 10:40:00,72.7,72.1,29.92,West,270,0.0,0.0,98,0.00,,,0.01,VWS V14.01,2013-07-20 14:40:00,
2013-07-20 10:45:00,72.8,71.9,29.92,West,270,0.0,2.0,97,0.00,,,0.01,VWS V14.01,2013-07-20 14:45:00,
2013-07-20 10:50:00,72.8,71.9,29.92,West,270,0.0,2.0,97,0.00,,,0.01,VWS V14.01,2013-07-20 14:50:00,
2013-07-20 10:55:00,73.2,72.3,29.92,West,270,1.0,3.0,97,0.00,,,0.01,VWS V14.01,2013-07-20 14:55:00,
2013-07-20 11:00:00,73.5,72.6,29.92,West,270,0.0,1.0,97,0.00,,,0.01,VWS V14.01,2013-07-20 15:00:00,
2013-07-20 11:05:00,73.9,72.7,29.92,West,270,0.0,2.0,96,0.00,,,0.01,VWS V14.01,2013-07-20 15:05:00,
2013-07-20 11:10:00,74.2,73.0,29.92,West,270,0.0,2.0,96,0.00,,,0.01,VWS V14.01,2013-07-20 15:10:00,
2013-07-20 11:15:00,74.4,72.6,29.93,West,270,1.0,3.0,94,0.00,,,0.01,VWS V14.01,2013-07-20 15:15:00,
2013-07-20 11:20:00,74.7,72.2,29.93,West,270,1.0,3.0,92,0.00,,,0.01,VWS V14.01,2013-07-20 15:20:00,
2013-07-20 11:25:00,74.9,72.4,29.93,West,270,0.0,1.0,92,0.00,,,0.01,VWS V14.01,2013-07-20 15:25:00,
2013-07-20 11:30:00,75.1,72.6,29.93,West,270,0.0,0.0,92,0.00,,,0.01,VWS V14.01,2013-07-20 15:30:00,
2013-07-20 11:35:00,75.3,72.8,29.93,West,270,0.0,1.0,92,0.00,,,0.01,VWS V14.01,2013-07-20 15:35:00,
2013-07-20 11:40:00,75.6,72.5,29.93,West,270,0.0,0.0,90,0.00,,,0.01,VWS V14.01,2013-07-20 15:40:00,
2013-07-20 11:45:00,76.0,72.2,29.93,West,270,0.0,2.0,88,0.00,,,0.01,VWS V14.01,2013-07-20 15:45:00,
2013-07-20 11:50:00,76.5,72.7,29.93,West,270,0.0,1.0,88,0.00,,,0.01,VWS V14.01,2013-07-20 15:50:00,
2013-07-20 11:55:00,76.7,72.5,29.93,West,270,0.0,0.0,87,0.00,,,0.01,VWS V14.01,2013-07-20 15:55:00,
2013-07-20 12:00:00,76.8,72.3,29.92,West,270,0.0,3.0,86,0.00,,,0.01,VWS V14.01,2013-07-20 16:00:00,
2013-07-20 12:05:00,76.7,72.5,29.92,West,270,0.0,1.0,87,0.00,,,0.01,VWS V14.01,2013-07-20 16:05:00,
2013-07-20 12:10:00,76.5,72.7,29.92,West,270,0.0,1.0,88,0.00,,,0.01,VWS V14.01,2013-07-20 16:10:00,
2013-07-20 12:15:00,76.8,71.9,29.91,West,270,1.0,4.0,85,0.00,,,0.01,VWS V14.01,2013-07-20 16:15:00,
2013-07-20 12:20:00,77.6,72.4,29.91,WNW,292,0.0,4.0,84,0.00,,,0.01,VWS V14.01,2013-07-20 16:20:00,
2013-07-20 12:25:00,78.3,72.7,29.91,WNW,292,0.0,5.0,83,0.00,,,0.01,VWS V14.01,2013-07-20 16:25:00,
2013-07-20 12:30:00,78.8,73.2,29.90,West,270,0.0,3.0,83,0.00,,,0.01,VWS V14.01,2013-07-20 16:30:00,
2013-07-20 12:35:00,79.2,72.1,29.90,West,270,2.0,7.0,79,0.00,,,0.01,VWS V14.01,2013-07-20 16:35:00,
2013-07-20 12:40:00,80.1,72.6,29.90,West,270,1.0,4.0,78,0.00,,,0.01,VWS V14.01,2013-07-20 16:40:00,
2013-07-20 12:45:00,80.9,72.6,29.90,West,270,0.0,2.0,76,0.00,,,0.01,VWS V14.01,2013-07-20 16:45:00,
2013-07-20 12:50:00,81.4,73.9,29.90,West,270,0.0,1.0,78,0.00,,,0.01,VWS V14.01,2013-07-20 16:50:00,
2013-07-20 12:55:00,82.0,70.4,29.90,West,270,0.0,2.0,68,0.00,,,0.01,VWS V14.01,2013-07-20 16:55:00,
2013-07-20 13:00:00,82.2,71.0,29.89,West,270,1.0,3.0,69,0.00,,,0.01,VWS V14.01,2013-07-20 17:00:00,
2013-07-20 13:05:00,81.8,71.9,29.89,West,270,0.0,1.0,72,0.00,,,0.01,VWS V14.01,2013-07-20 17:05:00,
2013-07-20 13:10:00,82.2,71.9,29.89,West,270,0.0,2.0,71,0.00,,,0.01,VWS V14.01,2013-07-20 17:10:00,
2013-07-20 13:15:00,82.8,72.0,29.88,West,270,0.0,2.0,70,0.00,,,0.01,VWS V14.01,2013-07-20 17:15:00,
2013-07-20 13:20:00,83.4,72.2,29.88,West,270,0.0,3.0,69,0.00,,,0.01,VWS V14.01,2013-07-20 17:20:00,
2013-07-20 13:25:00,83.8,72.6,29.88,West,270,0.0,4.0,69,0.00,,,0.01,VWS V14.01,2013-07-20 17:25:00,
2013-07-20 13:30:00,84.5,73.2,29.86,North,0,1.0,4.0,69,0.00,,,0.01,VWS V14.01,2013-07-20 17:30:00,
2013-07-20 13:35:00,85.3,73.6,29.86,WNW,292,1.0,5.0,68,0.00,,,0.01,VWS V14.01,2013-07-20 17:35:00,
2013-07-20 13:40:00,85.7,72.1,29.86,NW,315,1.0,4.0,64,0.00,,,0.01,VWS V14.01,2013-07-20 17:40:00,
2013-07-20 13:45:00,85.5,71.9,29.86,West,270,1.0,3.0,64,0.00,,,0.01,VWS V14.01,2013-07-20 17:45:00,
2013-07-20 13:50:00,85.1,71.1,29.86,West,270,1.0,4.0,63,0.00,,,0.01,VWS V14.01,2013-07-20 17:50:00,
2013-07-20 13:55:00,85.3,73.1,29.86,West,270,1.0,4.0,67,0.00,,,0.01,VWS V14.01,2013-07-20 17:55:00,
2013-07-20 14:00:00,85.1,73.8,29.86,WNW,292,0.0,1.0,69,0.00,,,0.01,VWS V14.01,2013-07-20 18:00:00,
2013-07-20 14:05:00,84.7,73.0,29.86,WNW,292,0.0,1.0,68,0.00,,,0.01,VWS V14.01,2013-07-20 18:05:00,
2013-07-20 14:10:00,84.3,73.5,29.86,WNW,292,0.0,4.0,70,0.00,,,0.01,VWS V14.01,2013-07-20 18:10:00,
2013-07-20 14:15:00,84.0,72.7,29.86,WNW,292,0.0,1.0,69,0.00,,,0.01,VWS V14.01,2013-07-20 18:15:00,
2013-07-20 14:20:00,83.2,72.4,29.86,WNW,292,0.0,2.0,70,0.00,,,0.01,VWS V14.01,2013-07-20 18:20:00,
2013-07-20 14:25:00,82.8,72.9,29.86,WNW,292,0.0,0.0,72,0.00,,,0.01,VWS V14.01,2013-07-20 18:25:00,
2013-07-20 14:30:00,82.4,73.7,29.85,WNW,292,0.0,1.0,75,0.00,,,0.01,VWS V14.01,2013-07-20 18:30:00,
2013-07-20 14:35:00,82.6,72.2,29.85,WNW,292,0.0,1.0,71,0.00,,,0.01,VWS V14.01,2013-07-20 18:35:00,
2013-07-20 14:40:00,82.6,73.5,29.85,WNW,292,0.0,1.0,74,0.00,,,0.01,VWS V14.01,2013-07-20 18:40:00,
2013-07-20 14:45:00,82.4,73.3,29.84,WNW,292,0.0,0.0,74,0.00,,,0.01,VWS V14.01,2013-07-20 18:45:00,
2013-07-20 14:50:00,82.4,74.1,29.84,WNW,292,0.0,0.0,76,0.00,,,0.01,VWS V14.01,2013-07-20 18:50:00,
2013-07-20 14:55:00,82.4,73.7,29.84,WNW,292,0.0,0.0,75,0.00,,,0.01,VWS V14.01,2013-07-20 18:55:00,
2013-07-20 15:00:00,82.2,74.3,29.84,WNW,292,0.0,0.0,77,0.00,,,0.01,VWS V14.01,2013-07-20 19:00:00,
2013-07-20 15:05:00,82.0,74.1,29.84,WNW,292,0.0,0.0,77,0.00,,,0.01,VWS V14.01,2013-07-20 19:05:00,
2013-07-20 15:10:00,81.6,74.5,29.84,WNW,292,0.0,0.0,79,0.00,,,0.01,VWS V14.01,2013-07-20 19:10:00,
2013-07-20 15:15:00,81.4,73.1,29.84,WNW,292,0.0,0.0,76,0.00,,,0.01,VWS V14.01,2013-07-20 19:15:00,
2013-07-20 15:20:00,82.2,72.3,29.84,WNW,292,1.0,3.0,72,0.00,,,0.01,VWS V14.01,2013-07-20 19:20:00,
2013-07-20 15:25:00,83.4,71.3,29.84,WNW,292,1.0,3.0,67,0.00,,,0.01,VWS V14.01,2013-07-20 19:25:00,
2013-07-20 15:30:00,84.5,71.9,29.83,WNW,292,1.0,3.0,66,0.00,,,0.01,VWS V14.01,2013-07-20 19:30:00,
2013-07-20 15:35:00,85.7,71.7,29.83,WNW,292,1.0,3.0,63,0.00,,,0.01,VWS V14.01,2013-07-20 19:35:00,
2013-07-20 15:40:00,86.7,71.7,29.83,WNW,292,1.0,7.0,61,0.00,,,0.01,VWS V14.01,2013-07-20 19:40:00,
2013-07-20 15:45:00,87.0,71.9,29.83,WSW,248,2.0,5.0,61,0.00,,,0.01,VWS V14.01,2013-07-20 19:45:00,
2013-07-20 15:50:00,87.2,72.6,29.83,WSW,248,0.0,2.0,62,0.00,,,0.01,VWS V14.01,2013-07-20 19:50:00,
2013-07-20 15:55:00,87.4,72.3,29.83,WSW,248,0.0,2.0,61,0.00,,,0.01,VWS V14.01,2013-07-20 19:55:00,
2013-07-20 16:00:00,87.8,70.7,29.82,WSW,248,1.0,3.0,57,0.00,,,0.01,VWS V14.01,2013-07-20 20:00:00,
2013-07-20 16:05:00,87.8,70.2,29.82,NNE,22,0.0,3.0,56,0.00,,,0.01,VWS V14.01,2013-07-20 20:05:00,
2013-07-20 16:10:00,88.0,70.3,29.82,West,270,1.0,4.0,56,0.00,,,0.01,VWS V14.01,2013-07-20 20:10:00,
2013-07-20 16:15:00,88.2,71.1,29.81,West,270,2.0,5.0,57,0.00,,,0.01,VWS V14.01,2013-07-20 20:15:00,
2013-07-20 16:20:00,88.4,70.2,29.81,WSW,248,1.0,3.0,55,0.00,,,0.01,VWS V14.01,2013-07-20 20:20:00,
2013-07-20 16:25:00,88.2,71.6,29.81,WSW,248,1.0,4.0,58,0.00,,,0.01,VWS V14.01,2013-07-20 20:25:00,
2013-07-20 16:30:00,87.6,71.0,29.82,West,270,1.0,4.0,58,0.00,,,0.01,VWS V14.01,2013-07-20 20:30:00,
2013-07-20 16:35:00,87.6,73.0,29.82,WNW,292,1.0,3.0,62,0.00,,,0.01,VWS V14.01,2013-07-20 20:35:00,
2013-07-20 16:40:00,86.7,73.1,29.82,WNW,292,0.0,0.0,64,0.00,,,0.01,VWS V14.01,2013-07-20 20:40:00,
2013-07-20 16:45:00,86.1,73.0,29.82,WNW,292,0.0,1.0,65,0.00,,,0.01,VWS V14.01,2013-07-20 20:45:00,
2013-07-20 16:50:00,85.1,70.6,29.82,WNW,292,1.0,5.0,62,0.00,,,0.01,VWS V14.01,2013-07-20 20:50:00,
2013-07-20 16:55:00,83.8,71.2,29.82,SW,225,1.0,3.0,66,0.00,,,0.01,VWS V14.01,2013-07-20 20:55:00,
2013-07-20 17:00:00,82.6,70.5,29.83,SW,225,0.0,2.0,67,0.00,,,0.01,VWS V14.01,2013-07-20 21:00:00,
2013-07-20 17:05:00,81.4,67.6,29.83,West,270,1.0,3.0,63,0.00,,,0.01,VWS V14.01,2013-07-20 21:05:00,
2013-07-20 17:10:00,80.1,67.7,29.83,West,270,1.0,2.0,66,0.00,,,0.01,VWS V14.01,2013-07-20 21:10:00,
2013-07-20 17:15:00,79.0,68.0,29.84,SW,225,0.0,2.0,69,0.00,,,0.01,VWS V14.01,2013-07-20 21:15:00,
2013-07-20 17:20:00,78.1,69.5,29.84,WSW,248,1.0,3.0,75,0.00,,,0.01,VWS V14.01,2013-07-20 21:20:00,
2013-07-20 17:25:00,76.8,69.4,29.84,WSW,248,0.0,4.0,78,0.00,,,0.01,VWS V14.01,2013-07-20 21:25:00,
2013-07-20 17:30:00,76.0,70.1,29.84,WNW,292,0.0,3.0,82,0.00,,,0.01,VWS V14.01,2013-07-20 21:30:00,
2013-07-20 17:35:00,75.6,70.1,29.84,WNW,292,0.0,1.0,83,0.00,,,0.01,VWS V14.01,2013-07-20 21:35:00,
2013-07-20 17:40:00,75.6,71.1,29.84,WNW,292,0.0,0.0,86,0.00,,,0.01,VWS V14.01,2013-07-20 21:40:00,
2013-07-20 17:45:00,75.8,71.0,29.84,WNW,292,0.0,1.0,85,0.00,,,0.01,VWS V14.01,2013-07-20 21:45:00,
2013-07-20 17:50:00,76.0,69.0,29.84,WNW,292,0.0,1.0,79,0.00,,,0.01,VWS V14.01,2013-07-20 21:50:00,
2013-07-20 17:55:00,76.7,70.1,29.84,WNW,292,0.0,0.0,80,0.00,,,0.01,VWS V14.01,2013-07-20 21:55:00,
2013-07-20 18:00:00,77.4,69.6,29.84,WNW,292,0.0,2.0,77,0.00,,,0.01,VWS V14.01,2013-07-20 22:00:00,
2013-07-20 18:05:00,77.9,70.1,29.84,WNW,292,0.0,1.0,77,0.00,,,0.01,VWS V14.01,2013-07-20 22:05:00,
2013-07-20 18:10:00,77.9,70.5,29.84,WNW,292,0.0,1.0,78,0.00,,,0.01,VWS V14.01,2013-07-20 22:10:00,
2013-07-20 18:15:00,78.3,70.9,29.85,SW,225,0.0,4.0,78,0.00,,,0.01,VWS V14.01,2013-07-20 22:15:00,
2013-07-20 18:20:00,78.6,70.4,29.85,SW,225,1.0,3.0,76,0.00,,,0.01,VWS V14.01,2013-07-20 22:20:00,
2013-07-20 18:25:00,79.2,70.2,29.85,SW,225,0.0,2.0,74,0.00,,,0.01,VWS V14.01,2013-07-20 22:25:00,
2013-07-20 18:30:00,79.4,70.8,29.83,WSW,248,1.0,4.0,75,0.00,,,0.01,VWS V14.01,2013-07-20 22:30:00,
2013-07-20 18:35:00,79.4,72.3,29.83,WSW,248,1.0,4.0,79,0.00,,,0.01,VWS V14.01,2013-07-20 22:35:00,
2013-07-20 18:40:00,78.8,71.4,29.83,WSW,248,0.0,2.0,78,0.00,,,0.01,VWS V14.01,2013-07-20 22:40:00,
2013-07-20 18:45:00,78.6,71.2,29.83,WSW,248,0.0,2.0,78,0.00,,,0.01,VWS V14.01,2013-07-20 22:45:00,
2013-07-20 18:50:00,78.6,71.2,29.83,WSW,248,0.0,1.0,78,0.00,,,0.01,VWS V14.01,2013-07-20 22:50:00,
2013-07-20 18:55:00,78.6,70.8,29.83,WSW,248,1.0,4.0,77,0.00,,,0.01,VWS V14.01,2013-07-20 22:55:00,
2013-07-20 19:00:00,78.5,71.8,29.83,WSW,248,1.0,3.0,80,0.00,,,0.01,VWS V14.01,2013-07-20 23:00:00,
2013-07-20 19:05:00,78.3,71.3,29.83,WSW,248,0.0,2.0,79,0.00,,,0.01,VWS V14.01,2013-07-20 23:05:00,
2013-07-20 19:10:00,78.3,71.6,29.83,WSW,248,0.0,1.0,80,0.00,,,0.01,VWS V14.01,2013-07-20 23:10:00,
2013-07-20 19:15:00,78.5,71.4,29.83,WSW,248,0.0,2.0,79,0.00,,,0.01,VWS V14.01,2013-07-20 23:15:00,
2013-07-20 19:20:00,78.5,71.4,29.83,WSW,248,0.0,2.0,79,0.00,,,0.01,VWS V14.01,2013-07-20 23:20:00,
2013-07-20 19:25:00,78.5,71.8,29.83,WSW,248,0.0,0.0,80,0.00,,,0.01,VWS V14.01,2013-07-20 23:25:00,
2013-07-20 19:30:00,78.5,71.8,29.83,WSW,248,0.0,2.0,80,0.00,,,0.01,VWS V14.01,2013-07-20 23:30:00,
2013-07-20 19:35:00,78.6,72.7,29.83,WSW,248,0.0,0.0,82,0.00,,,0.01,VWS V14.01,2013-07-20 23:35:00,
2013-07-20 19:40:00,78.5,72.2,29.83,WSW,248,0.0,2.0,81,0.00,,,0.01,VWS V14.01,2013-07-20 23:40:00,
2013-07-20 19:45:00,78.5,72.6,29.83,WSW,248,0.0,1.0,82,0.00,,,0.01,VWS V14.01,2013-07-20 23:45:00,
2013-07-20 19:50:00,78.1,72.2,29.83,WSW,248,0.0,3.0,82,0.00,,,0.01,VWS V14.01,2013-07-20 23:50:00,
2013-07-20 19:55:00,77.9,71.6,29.83,WSW,248,0.0,1.0,81,0.00,,,0.01,VWS V14.01,2013-07-20 23:55:00,
2013-07-20 20:00:00,77.7,71.4,29.84,WSW,248,0.0,1.0,81,0.00,,,0.01,VWS V14.01,2013-07-21 00:00:00,
2013-07-20 20:05:00,77.7,72.1,29.84,WSW,248,0.0,0.0,83,0.00,,,0.01,VWS V14.01,2013-07-21 00:05:00,
2013-07-20 20:10:00,77.6,72.4,29.84,WSW,248,0.0,0.0,84,0.00,,,0.01,VWS V14.01,2013-07-21 00:10:00,
2013-07-20 20:15:00,77.2,72.3,29.83,WSW,248,0.0,0.0,85,0.00,,,0.01,VWS V14.01,2013-07-21 00:15:00,
2013-07-20 20:20:00,76.8,71.9,29.83,WSW,248,0.0,0.0,85,0.00,,,0.01,VWS V14.01,2013-07-21 00:20:00,
2013-07-20 20:25:00,76.5,72.0,29.83,WSW,248,0.0,0.0,86,0.00,,,0.01,VWS V14.01,2013-07-21 00:25:00,
2013-07-20 20:30:00,76.1,71.9,29.85,WSW,248,0.0,0.0,87,0.00,,,0.01,VWS V14.01,2013-07-21 00:30:00,
2013-07-20 20:35:00,75.8,72.0,29.85,WSW,248,0.0,0.0,88,0.00,,,0.01,VWS V14.01,2013-07-21 00:35:00,
2013-07-20 20:40:00,75.4,71.6,29.85,WSW,248,0.0,0.0,88,0.00,,,0.01,VWS V14.01,2013-07-21 00:40:00,
2013-07-20 20:45:00,74.9,71.4,29.85,WSW,248,0.0,0.0,89,0.00,,,0.01,VWS V14.01,2013-07-21 00:45:00,
2013-07-20 20:50:00,74.6,71.5,29.85,WSW,248,0.0,0.0,90,0.00,,,0.01,VWS V14.01,2013-07-21 00:50:00,
2013-07-20 20:55:00,74.4,71.3,29.85,WSW,248,0.0,0.0,90,0.00,,,0.01,VWS V14.01,2013-07-21 00:55:00,
2013-07-20 21:00:00,74.0,71.2,29.85,WSW,248,0.0,0.0,91,0.00,,,0.01,VWS V14.01,2013-07-21 01:00:00,
2013-07-20 21:05:00,73.9,71.1,29.85,WSW,248,0.0,0.0,91,0.00,,,0.01,VWS V14.01,2013-07-21 01:05:00,
2013-07-20 21:10:00,73.7,70.9,29.85,WSW,248,0.0,0.0,91,0.00,,,0.01,VWS V14.01,2013-07-21 01:10:00,
2013-07-20 21:15:00,73.3,70.5,29.85,WSW,248,0.0,0.0,91,0.00,,,0.01,VWS V14.01,2013-07-21 01:15:00,
2013-07-20 21:20:00,73.2,70.7,29.85,WSW,248,0.0,0.0,92,0.00,,,0.01,VWS V14.01,2013-07-21 01:20:00,
2013-07-20 21:25:00,73.0,70.5,29.85,WSW,248,0.0,0.0,92,0.00,,,0.01,VWS V14.01,2013-07-21 01:25:00,
2013-07-20 21:30:00,72.7,70.2,29.86,WSW,248,0.0,0.0,92,0.00,,,0.01,VWS V14.01,2013-07-21 01:30:00,
2013-07-20 21:35:00,72.5,70.1,29.86,WSW,248,0.0,0.0,92,0.00,,,0.01,VWS V14.01,2013-07-21 01:35:00,
2013-07-20 21:40:00,72.1,69.7,29.86,WSW,248,0.0,0.0,92,0.00,,,0.01,VWS V14.01,2013-07-21 01:40:00,
2013-07-20 21:45:00,72.0,69.9,29.86,WSW,248,0.0,0.0,93,0.00,,,0.01,VWS V14.01,2013-07-21 01:45:00,
2013-07-20 21:50:00,71.8,69.7,29.86,WSW,248,0.0,0.0,93,0.00,,,0.01,VWS V14.01,2013-07-21 01:50:00,
2013-07-20 21:55:00,71.8,69.7,29.86,WSW,248,0.0,0.0,93,0.00,,,0.01,VWS V14.01,2013-07-21 01:55:00,
2013-07-20 22:00:00,71.6,69.8,29.87,WSW,248,0.0,0.0,94,0.00,,,0.01,VWS V14.01,2013-07-21 02:00:00,
2013-07-20 22:05:00,71.5,69.7,29.87,WSW,248,0.0,0.0,94,0.00,,,0.01,VWS V14.01,2013-07-21 02:05:00,
2013-07-20 22:10:00,71.5,69.7,29.87,WSW,248,0.0,0.0,94,0.00,,,0.01,VWS V14.01,2013-07-21 02:10:00,
2013-07-20 22:15:00,71.3,69.5,29.88,WSW,248,0.0,0.0,94,0.00,,,0.01,VWS V14.01,2013-07-21 02:15:00,
2013-07-20 22:20:00,71.3,69.5,29.88,WSW,248,0.0,0.0,94,0.00,,,0.01,VWS V14.01,2013-07-21 02:20:00,
2013-07-20 22:25:00,71.1,69.3,29.88,WSW,248,0.0,0.0,94,0.00,,,0.01,VWS V14.01,2013-07-21 02:25:00,
2013-07-20 22:30:00,70.9,69.1,29.88,WSW,248,0.0,0.0,94,0.00,,,0.01,VWS V14.01,2013-07-21 02:30:00,
2013-07-20 22:35:00,70.8,69.3,29.88,WSW,248,0.0,0.0,95,0.00,,,0.01,VWS V14.01,2013-07-21 02:35:00,
2013-07-20 22:40:00,70.6,69.1,29.88,WSW,248,0.0,0.0,95,0.00,,,0.01,VWS V14.01,2013-07-21 02:40:00,
2013-07-20 22:45:00,70.4,68.9,29.88,WSW,248,0.0,0.0,95,0.00,,,0.01,VWS V14.01,2013-07-21 02:45:00,
2013-07-20 22:50:00,70.3,68.8,29.88,WSW,248,0.0,0.0,95,0.00,,,0.01,VWS V14.01,2013-07-21 02:50:00,
2013-07-20 22:55:00,70.3,68.8,29.88,WSW,248,0.0,0.0,95,0.00,,,0.01,VWS V14.01,2013-07-21 02:55:00,
2013-07-20 23:00:00,70.1,68.6,29.88,WSW,248,0.0,0.0,95,0.00,,,0.01,VWS V14.01,2013-07-21 03:00:00,
2013-07-20 23:05:00,69.9,68.4,29.88,WSW,248,0.0,0.0,95,0.00,,,0.01,VWS V14.01,2013-07-21 03:05:00,
2013-07-20 23:10:00,69.9,68.4,29.88,WSW,248,0.0,0.0,95,0.00,,,0.01,VWS V14.01,2013-07-21 03:10:00,
2013-07-20 23:15:00,69.8,68.3,29.88,WSW,248,0.0,0.0,95,0.00,,,0.01,VWS V14.01,2013-07-21 03:15:00,
2013-07-20 23:20:00,69.6,68.1,29.88,WSW,248,0.0,0.0,95,0.00,,,0.01,VWS V14.01,2013-07-21 03:20:00,
2013-07-20 23:25:00,69.6,68.1,29.88,WSW,248,0.0,0.0,95,0.00,,,0.01,VWS V14.01,2013-07-21 03:25:00,
2013-07-20 23:30:00,69.4,67.9,29.88,WSW,248,0.0,0.0,95,0.00,,,0.01,VWS V14.01,2013-07-21 03:30:00,
2013-07-20 23:35:00,69.4,68.2,29.88,WSW,248,0.0,0.0,96,0.00,,,0.01,VWS V14.01,2013-07-21 03:35:00,
2013-07-20 23:40:00,69.3,68.1,29.88,WSW,248,0.0,0.0,96,0.00,,,0.01,VWS V14.01,2013-07-21 03:40:00,
2013-07-20 23:45:00,69.1,67.9,29.89,WSW,248,0.0,0.0,96,0.00,,,0.01,VWS V14.01,2013-07-21 03:45:00,
2013-07-20 23:50:00,69.1,67.9,29.89,WSW,248,0.0,0.0,96,0.00,,,0.01,VWS V14.01,2013-07-21 03:50:00,
2013-07-20 23:55:00,68.9,67.7,29.89,WSW,248,0.0,0.0,96,0.00,,,0.01,VWS V14.01,2013-07-21 03:55:00,